Time;durP1;ratioP1;P1;durP2;ratioP2;P2;SDS_P1;SDS_P2;PMS_P1;PMS_P2;Temp;Humidity;BMP_temperature;BMP_pressure;BME280_temperature;BME280_humidity;BME280_pressure;Samples;Min_cycle;Max_cycle;Signal;HPM_P1;HPM_P2
2023/07/01 00:00:06;;;;;;;3.10;1.02;;;;;;;17.90;72.66;100563.47;6277492;28;20500;-71
2023/07/01 00:03:09;;;;;;;0.77;0.77;;;;;;;17.93;71.99;100551.69;6276407;28;20339;-71
2023/07/01 00:06:10;;;;;;;2.38;1.10;;;;;;;17.95;72.04;100542.63;6244361;28;20048;-71
2023/07/01 00:09:12;;;;;;;1.27;0.90;;;;;;;17.92;71.41;100542.88;6251919;28;20350;-71
2023/07/01 00:12:13;;;;;;;2.13;1.10;;;;;;;17.95;71.63;100537.31;6251532;28;20381;-71
2023/07/01 00:15:14;;;;;;;2.53;1.40;;;;;;;17.93;71.61;100538.41;6252009;28;20046;-71
2023/07/01 00:18:17;;;;;;;3.05;1.13;;;;;;;17.89;72.23;100531.66;6252269;28;20060;-71
2023/07/01 00:21:18;;;;;;;4.10;1.00;;;;;;;17.92;72.22;100537.56;6251366;28;20049;-71
2023/07/01 00:24:20;;;;;;;1.52;1.10;;;;;;;17.95;71.70;100531.16;6251899;28;20077;-71
2023/07/01 00:27:21;;;;;;;1.65;1.25;;;;;;;17.98;71.51;100526.38;6251867;28;20052;-71
2023/07/01 00:30:23;;;;;;;2.58;1.10;;;;;;;17.92;70.57;100526.94;6252143;28;20053;-71
2023/07/01 00:33:25;;;;;;;1.80;0.90;;;;;;;17.93;70.18;100512.66;6251124;28;20446;-71
2023/07/01 00:36:27;;;;;;;2.95;0.80;;;;;;;17.99;71.22;100514.78;6251715;28;20049;-71
2023/07/01 00:39:28;;;;;;;1.33;0.77;;;;;;;17.99;70.33;100511.28;6251752;28;20055;-71
2023/07/01 00:42:30;;;;;;;3.20;1.40;;;;;;;17.90;70.12;100504.97;6253748;28;20075;-71
2023/07/01 00:45:31;;;;;;;2.47;1.00;;;;;;;17.96;71.33;100504.41;6276284;28;20045;-71
2023/07/01 00:48:34;;;;;;;2.28;0.90;;;;;;;17.99;71.16;100505.97;6275859;28;20323;-71
2023/07/01 00:51:35;;;;;;;1.67;1.00;;;;;;;18.03;71.04;100495.88;6255747;28;20529;-71
2023/07/01 00:54:36;;;;;;;2.30;0.82;;;;;;;18.00;71.34;100489.03;6251118;28;20042;-71
2023/07/01 00:57:38;;;;;;;1.58;0.75;;;;;;;18.02;72.28;100497.72;6251327;28;20057;-71
2023/07/01 01:00:39;;;;;;;2.00;0.95;;;;;;;17.97;71.77;100490.13;6251092;28;20342;-71
2023/07/01 01:03:47;;;;;;;1.35;0.80;;;;;;;17.99;71.46;100482.88;6250734;28;20053;-71
2023/07/01 01:06:54;;;;;;;2.90;0.70;;;;;;;17.99;71.78;100479.38;6256324;28;20349;-71
2023/07/01 01:10:01;;;;;;;2.85;1.02;;;;;;;17.97;71.79;100479.50;6276069;28;20056;-71
2023/07/01 01:13:05;;;;;;;3.95;0.93;;;;;;;17.93;72.24;100485.22;6275178;28;20052;-71
2023/07/01 01:16:06;;;;;;;1.42;0.93;;;;;;;17.88;71.63;100472.34;6275670;28;20049;-71
2023/07/01 01:19:19;;;;;;;2.75;0.90;;;;;;;17.91;72.67;100469.41;6275513;28;20045;-71
2023/07/01 01:22:25;;;;;;;2.40;1.02;;;;;;;17.86;71.34;100473.47;6243807;28;20049;-71
2023/07/01 01:25:34;;;;;;;2.25;1.30;;;;;;;17.86;71.41;100470.81;6250540;28;20512;-71
2023/07/01 01:28:37;;;;;;;3.47;0.95;;;;;;;17.81;71.27;100463.25;6250841;28;20045;-71
2023/07/01 01:31:39;;;;;;;1.75;1.10;;;;;;;17.81;72.09;100460.59;6252424;28;20048;-71
2023/07/01 01:34:40;;;;;;;1.73;1.13;;;;;;;17.81;71.93;100460.59;6253087;28;20041;-71
2023/07/01 01:37:46;;;;;;;1.20;0.80;;;;;;;17.85;71.51;100456.69;6263134;28;20048;-71
2023/07/01 01:40:54;;;;;;;1.23;0.85;;;;;;;17.81;71.29;100452.59;6274293;28;20045;-71
2023/07/01 01:44:01;;;;;;;1.30;0.98;;;;;;;17.78;71.67;100444.91;6275098;28;20041;-71
2023/07/01 01:47:03;;;;;;;3.10;1.38;;;;;;;17.73;70.50;100437.31;6275091;28;20049;-71
2023/07/01 01:50:08;;;;;;;6.15;1.38;;;;;;;17.75;71.33;100423.88;6275089;28;20045;-71
2023/07/01 01:53:11;;;;;;;1.58;1.20;;;;;;;17.80;71.19;100411.03;6241504;28;20077;-71
2023/07/01 01:56:13;;;;;;;3.72;0.95;;;;;;;17.71;70.82;100393.22;6250122;28;20426;-71
2023/07/01 01:59:16;;;;;;;3.25;2.17;;;;;;;17.60;71.65;100393.34;6259235;28;20057;-71
2023/07/01 02:02:17;;;;;;;1.30;1.00;;;;;;;17.61;71.33;100377.25;6275935;28;20072;-71
2023/07/01 02:05:19;;;;;;;2.28;1.10;;;;;;;17.62;71.34;100376.28;6264618;28;20052;-71
2023/07/01 02:08:20;;;;;;;1.55;1.25;;;;;;;17.63;71.16;100385.09;6280214;28;20060;-71
2023/07/01 02:11:21;;;;;;;2.85;1.20;;;;;;;17.56;71.14;100376.81;6260876;28;20112;-71
2023/07/01 02:14:24;;;;;;;3.10;1.20;;;;;;;17.62;70.62;100372.78;6255147;28;20046;-71
2023/07/01 02:17:26;;;;;;;4.68;1.73;;;;;;;17.58;71.51;100369.56;6255019;28;20454;-71
2023/07/01 02:20:27;;;;;;;1.38;1.08;;;;;;;17.59;71.25;100370.41;6254829;28;20050;-71
2023/07/01 02:23:28;;;;;;;4.22;1.40;;;;;;;17.62;70.88;100370.97;6254277;28;20350;-71
2023/07/01 02:26:30;;;;;;;0.57;0.57;;;;;;;17.69;70.81;100360.63;6254722;28;20049;-71
2023/07/01 02:29:32;;;;;;;2.38;1.40;;;;;;;17.56;70.86;100363.53;6255112;28;20042;-71
2023/07/01 02:32:34;;;;;;;2.38;1.23;;;;;;;17.55;71.03;100366.34;6254156;28;20053;-71
2023/07/01 02:35:35;;;;;;;1.48;1.27;;;;;;;17.55;69.89;100364.50;6254597;28;20048;-71
2023/07/01 02:38:36;;;;;;;1.15;1.00;;;;;;;17.58;69.97;100355.44;6255670;28;20422;-71
2023/07/01 02:41:38;;;;;;;5.22;1.55;;;;;;;17.60;72.06;100351.66;6258435;28;20050;-71
2023/07/01 02:44:40;;;;;;;3.63;1.45;;;;;;;17.63;70.78;100354.06;6254209;28;20370;-71
2023/07/01 02:47:41;;;;;;;1.80;1.10;;;;;;;17.66;70.18;100352.91;6245819;28;20045;-71
2023/07/01 02:50:43;;;;;;;2.47;1.13;;;;;;;17.63;71.15;100347.91;6254157;28;20049;-71
2023/07/01 02:53:44;;;;;;;2.35;1.10;;;;;;;17.64;71.32;100347.75;6254240;28;20049;-71
2023/07/01 02:56:45;;;;;;;2.70;1.50;;;;;;;17.70;70.30;100349.00;6253618;28;20350;-71
2023/07/01 02:59:49;;;;;;;5.75;1.15;;;;;;;17.70;69.82;100343.69;6253872;28;20045;-71
2023/07/01 03:02:50;;;;;;;1.42;1.30;;;;;;;17.72;69.30;100341.75;6253321;28;20422;-71
2023/07/01 03:05:51;;;;;;;1.80;1.38;;;;;;;17.65;69.20;100337.97;6253822;28;20421;-71
2023/07/01 03:08:53;;;;;;;2.83;1.13;;;;;;;17.57;70.97;100343.94;6253744;28;20052;-71
2023/07/01 03:11:54;;;;;;;1.90;1.27;;;;;;;17.67;70.55;100336.84;6253020;28;20052;-71
2023/07/01 03:14:57;;;;;;;2.90;1.00;;;;;;;17.69;70.92;100331.41;6253509;28;20041;-71
2023/07/01 03:17:58;;;;;;;2.13;1.40;;;;;;;17.62;69.92;100330.25;6253242;28;20064;-71
2023/07/01 03:21:00;;;;;;;2.03;1.30;;;;;;;17.67;70.70;100328.06;6252757;28;20053;-71
2023/07/01 03:24:02;;;;;;;1.85;1.20;;;;;;;17.79;70.88;100326.13;6268513;28;20080;-71
2023/07/01 03:27:04;;;;;;;4.22;1.27;;;;;;;17.68;69.96;100317.28;6278033;28;20053;-71
2023/07/01 03:30:13;;;;;;;3.53;1.15;;;;;;;17.74;70.50;100311.44;6264988;28;20065;-71
2023/07/01 03:33:17;;;;;;;1.17;1.00;;;;;;;17.75;71.44;100313.09;6244987;28;20102;-71
2023/07/01 03:36:18;;;;;;;2.35;1.15;;;;;;;17.68;71.12;100306.63;6247224;28;20042;-71
2023/07/01 03:39:20;;;;;;;1.70;1.38;;;;;;;17.68;70.83;100305.81;6258147;28;20112;-71
2023/07/01 03:42:22;;;;;;;3.17;1.42;;;;;;;17.74;70.48;100298.13;6267563;28;20056;-71
2023/07/01 03:45:24;;;;;;;2.63;1.55;;;;;;;17.72;72.04;100294.75;6254604;28;20050;-71
2023/07/01 03:48:26;;;;;;;1.88;1.10;;;;;;;17.73;72.14;100293.81;6244815;28;20053;-71
2023/07/01 03:51:28;;;;;;;2.28;1.23;;;;;;;17.72;70.94;100288.59;6242656;28;20437;-71
2023/07/01 03:54:29;;;;;;;3.97;1.23;;;;;;;17.77;71.87;100282.91;6244971;28;20528;-71
2023/07/01 03:57:30;;;;;;;3.13;1.45;;;;;;;17.78;71.02;100279.25;6244922;28;20057;-71
2023/07/01 04:00:33;;;;;;;2.33;1.17;;;;;;;17.81;71.77;100276.34;6242791;28;20045;-71
2023/07/01 04:03:35;;;;;;;1.77;1.23;;;;;;;17.77;70.76;100275.75;6239387;28;20041;-71
2023/07/01 04:06:37;;;;;;;1.80;1.20;;;;;;;17.82;70.14;100270.88;6244462;28;20045;-72
2023/07/01 04:09:38;;;;;;;1.90;0.98;;;;;;;17.77;71.26;100265.13;6244392;28;20067;-71
2023/07/01 04:12:40;;;;;;;2.08;1.40;;;;;;;17.77;70.49;100259.81;6248285;28;20693;-71
2023/07/01 04:15:43;;;;;;;3.60;1.55;;;;;;;17.80;70.79;100256.03;6252120;28;20054;-71
2023/07/01 04:18:45;;;;;;;1.88;1.10;;;;;;;17.79;70.10;100257.84;6273387;28;20326;-71
2023/07/01 04:21:46;;;;;;;2.92;1.48;;;;;;;17.79;70.32;100252.53;6247147;28;20525;-71
2023/07/01 04:24:47;;;;;;;2.40;1.40;;;;;;;17.80;70.71;100248.88;6243804;28;20049;-71
2023/07/01 04:27:49;;;;;;;1.52;0.85;;;;;;;17.82;70.60;100246.09;6246321;28;20140;-71
2023/07/01 04:30:51;;;;;;;4.30;1.15;;;;;;;17.83;70.88;100239.81;6243654;28;20327;-71
2023/07/01 04:33:53;;;;;;;2.65;1.15;;;;;;;17.82;69.91;100236.31;6251566;28;20060;-71
2023/07/01 04:36:54;;;;;;;5.68;1.48;;;;;;;17.85;70.64;100229.84;6266177;28;20406;-71
2023/07/01 04:39:56;;;;;;;3.40;1.30;;;;;;;17.84;69.65;100228.19;6276575;28;20045;-71
2023/07/01 04:42:57;;;;;;;2.17;1.02;;;;;;;17.87;69.92;100226.09;6275476;28;20075;-71
2023/07/01 04:46:00;;;;;;;4.57;1.17;;;;;;;17.90;73.00;100228.47;6276196;28;20056;-71
2023/07/01 04:49:01;;;;;;;4.60;1.40;;;;;;;17.87;70.68;100228.75;6269121;28;20485;-71
2023/07/01 04:52:03;;;;;;;2.17;1.13;;;;;;;17.94;70.54;100221.03;6250848;28;20448;-71
2023/07/01 04:55:05;;;;;;;1.38;1.10;;;;;;;17.92;70.11;100209.72;6251088;28;20052;-71
2023/07/01 04:58:07;;;;;;;2.35;1.55;;;;;;;17.96;69.31;100211.94;6251489;28;20053;-71
2023/07/01 05:01:09;;;;;;;3.50;1.40;;;;;;;18.00;69.88;100200.03;6250483;28;20354;-71
2023/07/01 05:04:11;;;;;;;1.63;1.00;;;;;;;17.99;70.49;100202.84;6242915;28;20060;-71
2023/07/01 05:07:12;;;;;;;1.60;1.17;;;;;;;17.98;68.92;100193.19;6251121;28;20401;-71
2023/07/01 05:10:13;;;;;;;1.90;1.20;;;;;;;18.04;69.60;100197.94;6250803;28;20053;-71
2023/07/01 05:13:15;;;;;;;3.30;1.52;;;;;;;18.03;69.27;100198.91;6250459;28;20046;-71
2023/07/01 05:16:17;;;;;;;4.50;1.13;;;;;;;18.07;69.32;100187.00;6250699;28;20049;-71
2023/07/01 05:19:19;;;;;;;4.47;1.40;;;;;;;18.16;70.60;100186.13;6250981;28;20438;-71
2023/07/01 05:22:20;;;;;;;1.42;1.33;;;;;;;18.17;73.23;100181.69;6250005;28;20397;-71
2023/07/01 05:25:21;;;;;;;2.08;1.00;;;;;;;18.10;69.97;100175.25;6250772;28;20052;-71
2023/07/01 05:28:23;;;;;;;2.10;1.70;;;;;;;18.10;70.68;100177.91;6250609;28;20052;-71
2023/07/01 05:31:25;;;;;;;1.60;1.10;;;;;;;18.15;70.82;100186.28;6254888;28;20049;-71
2023/07/01 05:34:27;;;;;;;2.75;1.15;;;;;;;18.17;70.27;100179.84;6251110;28;20049;-71
2023/07/01 05:37:28;;;;;;;2.58;1.10;;;;;;;18.20;69.18;100182.22;6237447;28;20057;-71
2023/07/01 05:40:29;;;;;;;3.95;1.10;;;;;;;18.17;70.52;100176.38;6248500;28;20053;-71
2023/07/01 05:43:31;;;;;;;2.67;1.38;;;;;;;18.20;70.72;100176.06;6249487;28;20050;-71
2023/07/01 05:46:34;;;;;;;2.10;1.20;;;;;;;18.20;72.34;100176.88;6247456;28;20048;-71
2023/07/01 05:49:35;;;;;;;0.93;0.80;;;;;;;18.18;70.57;100173.56;6270105;28;20359;-71
2023/07/01 05:52:36;;;;;;;2.13;1.13;;;;;;;18.19;71.21;100172.56;6274467;28;20051;-71
2023/07/01 05:55:38;;;;;;;3.15;1.00;;;;;;;18.22;71.11;100172.28;6274867;28;20048;-71
2023/07/01 05:58:39;;;;;;;1.25;1.00;;;;;;;18.24;71.12;100172.97;6274915;28;20344;-71
2023/07/01 06:01:42;;;;;;;1.20;1.00;;;;;;;18.28;71.31;100162.03;6274139;28;20053;-71
2023/07/01 06:04:43;;;;;;;1.45;1.02;;;;;;;18.23;71.69;100158.00;6274699;28;20330;-71
2023/07/01 06:07:44;;;;;;;2.03;1.08;;;;;;;18.36;71.44;100159.50;6253789;28;20038;-71
2023/07/01 06:10:46;;;;;;;2.00;1.10;;;;;;;18.40;70.95;100151.06;6249408;28;20052;-71
2023/07/01 06:13:48;;;;;;;1.52;1.35;;;;;;;18.41;70.28;100147.41;6250001;28;20046;-71
2023/07/01 06:16:50;;;;;;;7.53;1.13;;;;;;;18.43;70.82;100142.78;6249946;28;20045;-71
2023/07/01 06:19:52;;;;;;;3.53;1.15;;;;;;;18.44;71.12;100148.94;6250149;28;20050;-71
2023/07/01 06:22:53;;;;;;;2.72;1.25;;;;;;;18.49;70.83;100144.88;6249218;28;20056;-71
2023/07/01 06:25:54;;;;;;;2.00;1.13;;;;;;;18.47;71.18;100138.84;6250099;28;20053;-71
2023/07/01 06:28:56;;;;;;;1.15;0.95;;;;;;;18.48;72.02;100139.66;6250120;28;20064;-71
2023/07/01 06:31:58;;;;;;;1.38;0.98;;;;;;;18.59;71.48;100138.66;6251309;28;20057;-71
2023/07/01 06:35:00;;;;;;;3.20;1.10;;;;;;;18.63;70.73;100127.56;6250103;28;20050;-71
2023/07/01 06:38:01;;;;;;;2.15;1.08;;;;;;;18.61;70.78;100124.19;6256008;28;20048;-71
2023/07/01 06:41:02;;;;;;;1.05;0.90;;;;;;;18.77;71.79;100120.09;6265583;28;20049;-71
2023/07/01 06:44:04;;;;;;;1.70;0.95;;;;;;;18.72;72.75;100120.53;6274297;28;20060;-71
2023/07/01 06:47:07;;;;;;;3.20;1.35;;;;;;;18.75;70.29;100120.22;6258774;28;20045;-71
2023/07/01 06:50:09;;;;;;;1.10;0.82;;;;;;;18.78;70.58;100119.94;6278934;28;20057;-71
2023/07/01 06:53:10;;;;;;;2.55;1.73;;;;;;;18.92;70.91;100115.91;6262218;28;20056;-71
2023/07/01 06:56:13;;;;;;;1.50;0.93;;;;;;;18.70;71.04;100117.19;6259319;28;20445;-71
2023/07/01 06:59:14;;;;;;;3.83;1.13;;;;;;;18.67;70.72;100098.84;6262332;28;20049;-71
2023/07/01 07:02:17;;;;;;;1.10;1.00;;;;;;;18.65;71.25;100111.44;6259159;28;20048;-71
2023/07/01 07:05:18;;;;;;;5.18;1.60;;;;;;;18.68;72.36;100109.31;6250572;28;20042;-71
2023/07/01 07:08:19;;;;;;;4.03;1.10;;;;;;;18.66;70.89;100108.63;6253260;28;20048;-71
2023/07/01 07:11:21;;;;;;;2.38;1.42;;;;;;;18.68;72.37;100111.97;6252322;28;20053;-71
2023/07/01 07:14:23;;;;;;;5.68;1.25;;;;;;;18.70;72.37;100098.53;6253027;28;20045;-71
2023/07/01 07:17:26;;;;;;;2.17;1.10;;;;;;;18.68;72.20;100104.00;6254978;28;20438;-71
2023/07/01 07:20:27;;;;;;;2.83;1.40;;;;;;;18.70;73.42;100095.88;6273094;28;20045;-71
2023/07/01 07:23:28;;;;;;;1.70;1.00;;;;;;;18.76;72.86;100095.31;6246141;28;20053;-71
2023/07/01 07:26:30;;;;;;;2.28;0.93;;;;;;;18.80;74.98;100095.81;6261682;28;20042;-71
2023/07/01 07:29:33;;;;;;;3.28;1.50;;;;;;;18.78;74.05;100097.81;6257231;28;20061;-72
2023/07/01 07:32:36;;;;;;;2.92;1.00;;;;;;;18.77;73.68;100093.47;6248192;28;20052;-71
2023/07/01 07:35:37;;;;;;;2.50;1.08;;;;;;;18.83;73.09;100092.84;6252419;28;20077;-71
2023/07/01 07:38:39;;;;;;;3.80;1.67;;;;;;;18.83;72.61;100092.84;6252073;28;20431;-74
2023/07/01 07:41:40;;;;;;;5.10;1.65;;;;;;;18.91;73.29;100090.28;6249660;28;20045;-72
2023/07/01 07:44:42;;;;;;;3.03;1.42;;;;;;;18.97;72.73;100079.00;6248606;28;20060;-72
2023/07/01 07:47:45;;;;;;;1.52;1.10;;;;;;;18.97;73.55;100085.19;6251624;28;20426;-72
2023/07/01 07:50:46;;;;;;;2.92;1.15;;;;;;;18.95;71.16;100079.19;6250741;28;20061;-71
2023/07/01 07:53:47;;;;;;;1.33;1.00;;;;;;;18.96;72.51;100080.84;6251596;28;20088;-72
2023/07/01 07:56:49;;;;;;;1.92;1.38;;;;;;;18.94;73.61;100079.31;6251249;28;20056;-71
2023/07/01 07:59:50;;;;;;;2.30;1.10;;;;;;;18.97;71.67;100076.34;6250647;28;20048;-72
2023/07/01 08:02:53;;;;;;;1.98;1.42;;;;;;;18.98;71.46;100081.50;6250485;28;20056;-72
2023/07/01 08:05:54;;;;;;;4.22;1.73;;;;;;;18.98;71.22;100080.69;6249210;28;20064;-79
2023/07/01 08:08:56;;;;;;;3.10;1.15;;;;;;;18.99;71.96;100074.38;6251121;28;20050;-72
2023/07/01 08:11:58;;;;;;;2.38;1.10;;;;;;;19.00;71.38;100074.22;6250762;28;20053;-75
2023/07/01 08:15:00;;;;;;;2.53;1.52;;;;;;;19.01;72.00;100067.91;6265943;28;20049;-73
2023/07/01 08:18:03;;;;;;;4.35;1.73;;;;;;;19.11;72.29;100072.31;6275945;28;20056;-72
2023/07/01 08:21:04;;;;;;;2.13;1.02;;;;;;;19.04;71.30;100077.44;6275223;28;20224;-75
2023/07/01 08:24:08;;;;;;;2.33;1.27;;;;;;;19.12;71.41;100066.84;6275486;28;20466;-72
2023/07/01 08:27:09;;;;;;;4.82;1.92;;;;;;;19.12;71.49;100072.19;6275663;28;20045;-72
2023/07/01 08:30:12;;;;;;;4.45;1.88;;;;;;;19.12;73.06;100069.50;6275527;28;20052;-72
2023/07/01 08:33:14;;;;;;;1.88;1.20;;;;;;;19.06;71.47;100066.63;6242362;28;20084;-75
2023/07/01 08:36:16;;;;;;;3.72;1.65;;;;;;;19.12;71.43;100066.84;6267661;28;20052;-72
2023/07/01 08:39:17;;;;;;;2.67;1.45;;;;;;;19.21;72.96;100065.06;6275476;28;20051;-72
2023/07/01 08:42:26;;;;;;;2.42;1.10;;;;;;;19.20;72.42;100064.22;6274518;28;20452;-72
2023/07/01 08:45:30;;;;;;;2.45;1.30;;;;;;;19.23;71.73;100060.44;6275026;28;20044;-72
2023/07/01 08:48:33;;;;;;;1.80;1.00;;;;;;;19.30;71.95;100060.63;6275234;28;20056;-72
2023/07/01 08:51:39;;;;;;;2.72;1.63;;;;;;;19.31;72.70;100054.34;6274686;28;20502;-72
2023/07/01 08:54:41;;;;;;;2.22;1.60;;;;;;;19.34;72.23;100070.00;6275073;28;20056;-73
2023/07/01 08:57:42;;;;;;;4.30;1.48;;;;;;;19.31;71.95;100059.69;6264139;28;20468;-74
2023/07/01 09:00:44;;;;;;;3.25;1.45;;;;;;;19.39;72.67;100049.06;6244469;28;20054;-72
2023/07/01 09:03:49;;;;;;;2.97;1.25;;;;;;;19.41;73.46;100058.56;6259198;28;20042;-73
2023/07/01 09:06:50;;;;;;;1.85;1.00;;;;;;;19.48;72.62;100043.66;6251271;28;20132;-72
2023/07/01 09:09:52;;;;;;;2.97;1.67;;;;;;;19.49;74.86;100045.31;6250813;28;20188;-72
2023/07/01 09:12:53;;;;;;;1.52;1.00;;;;;;;19.52;73.44;100044.97;6250488;28;20041;-73
2023/07/01 09:15:54;;;;;;;3.85;1.50;;;;;;;19.57;75.76;100044.50;6250710;28;20049;-73
2023/07/01 09:19:05;;;;;;;6.65;2.05;;;;;;;19.59;74.12;100047.88;6251017;28;20088;-75
2023/07/01 09:22:09;;;;;;;2.28;1.27;;;;;;;19.65;74.79;100039.25;6250213;28;20041;-76
2023/07/01 09:25:26;;;;;;;1.90;0.93;;;;;;;19.59;74.36;100041.72;6259162;28;20056;-78
2023/07/01 09:28:31;;;;;;;1.50;1.27;;;;;;;19.66;74.92;100040.09;6244719;28;20087;-73
2023/07/01 09:31:44;;;;;;;3.53;1.38;;;;;;;19.65;75.33;100046.44;6247084;28;20095;-72
2023/07/01 09:34:55;;;;;;;3.45;1.13;;;;;;;19.68;74.27;100052.28;6248115;28;20095;-75
2023/07/01 09:38:02;;;;;;;2.35;1.38;;;;;;;19.74;74.90;100043.66;6254676;28;20055;-73
2023/07/01 09:41:13;;;;;;;10.10;2.67;;;;;;;19.79;76.18;100034.34;6258072;28;20497;-73
2023/07/01 09:44:18;;;;;;;1.80;1.23;;;;;;;19.83;76.20;100041.88;6274879;28;20400;-74
2023/07/01 09:47:25;;;;;;;2.55;1.42;;;;;;;19.75;76.42;100037.31;6256755;28;20138;-74
2023/07/01 09:50:29;;;;;;;4.78;1.52;;;;;;;19.65;77.11;100033.09;6264959;28;20049;-75
2023/07/01 09:53:32;;;;;;;5.43;1.38;;;;;;;19.72;78.99;100036.81;6249838;28;20060;-74
2023/07/01 09:56:34;;;;;;;5.15;1.42;;;;;;;19.77;78.15;100031.84;6250293;28;20050;-73
2023/07/01 09:59:35;;;;;;;2.22;1.60;;;;;;;19.85;78.85;100031.03;6250172;28;20045;-73
2023/07/01 10:02:36;;;;;;;3.25;1.20;;;;;;;19.80;79.29;100036.00;6249655;28;20045;-74
2023/07/01 10:05:40;;;;;;;2.55;1.73;;;;;;;19.86;79.57;100038.88;6270112;28;20064;-74
2023/07/01 10:08:43;;;;;;;2.95;1.35;;;;;;;19.59;81.04;100036.38;6274830;28;20048;-75
2023/07/01 10:11:45;;;;;;;2.58;1.65;;;;;;;19.50;81.52;100051.47;6274550;28;20171;-74
2023/07/01 10:14:50;;;;;;;5.13;1.90;;;;;;;19.50;83.49;100035.47;6274949;28;20049;-73
2023/07/01 10:17:53;;;;;;;2.35;1.58;;;;;;;19.55;82.47;100029.69;6274798;28;20377;-73
2023/07/01 10:21:29;;;;;;;3.35;1.67;;;;;;;19.44;82.20;100030.75;6274171;28;20040;-77
2023/07/01 10:24:38;;;;;;;2.08;1.50;;;;;;;19.50;81.91;100027.50;6279569;28;20434;-72
2023/07/01 10:28:07;;;;;;;4.18;1.70;;;;;;;19.54;82.50;100017.34;6267960;28;20048;-74
2023/07/01 10:31:12;;;;;;;2.50;1.63;;;;;;;19.51;82.71;100029.16;6254026;28;20056;-79
2023/07/01 10:34:14;;;;;;;2.05;1.20;;;;;;;19.58;82.70;100013.38;6254678;28;20045;-73
2023/07/01 10:37:17;;;;;;;3.05;1.23;;;;;;;19.58;83.07;100016.88;6254528;28;20046;-74
2023/07/01 10:40:44;;;;;;;2.42;1.25;;;;;;;19.70;83.53;100018.28;6254613;28;20057;-73
2023/07/01 10:43:45;;;;;;;2.38;1.35;;;;;;;19.77;81.65;100019.34;6254591;28;20056;-71
2023/07/01 10:47:17;;;;;;;3.53;1.42;;;;;;;19.72;81.28;100024.31;6254317;28;20042;-73
2023/07/01 10:50:19;;;;;;;4.90;1.50;;;;;;;19.76;80.80;100025.69;6254979;28;20056;-73
2023/07/01 10:53:22;;;;;;;3.47;1.50;;;;;;;19.80;82.49;100030.69;6253528;28;20048;-73
2023/07/01 10:56:23;;;;;;;4.80;1.83;;;;;;;19.72;84.63;100024.31;6254793;28;20060;-72
2023/07/01 10:59:26;;;;;;;2.50;1.65;;;;;;;19.58;84.35;100032.88;6260112;28;20353;-73
2023/07/01 11:02:38;;;;;;;5.53;1.75;;;;;;;19.46;91.03;100028.78;6269793;28;20140;-74
2023/07/01 11:05:58;;;;;;;5.18;1.63;;;;;;;19.38;92.02;100036.72;6278634;28;20037;-73
2023/07/01 11:09:00;;;;;;;4.95;2.10;;;;;;;19.31;88.77;100033.03;6270307;28;20458;-75
2023/07/01 11:12:03;;;;;;;3.97;2.15;;;;;;;19.14;88.82;100030.22;6264532;28;20355;-80
2023/07/01 11:15:06;;;;;;;7.13;1.90;;;;;;;19.07;90.62;100031.00;6262405;28;20049;-73
2023/07/01 11:18:07;;;;;;;3.40;1.80;;;;;;;19.09;89.58;100021.03;6253300;28;20057;-74
2023/07/01 11:21:10;;;;;;;2.92;2.08;;;;;;;19.12;89.38;100024.25;6252889;28;20046;-74
2023/07/01 11:24:13;;;;;;;3.53;1.98;;;;;;;19.15;89.99;100023.06;6253598;28;20073;-73
2023/07/01 11:27:14;;;;;;;3.75;1.77;;;;;;;19.16;91.22;100035.38;6245333;28;20050;-74
2023/07/01 11:30:29;;;;;;;3.50;2.05;;;;;;;19.11;91.18;100027.03;6259571;28;20072;-74
2023/07/01 11:33:31;;;;;;;3.75;1.75;;;;;;;19.09;92.23;100032.53;6251480;28;20128;-78
2023/07/01 11:36:35;;;;;;;4.10;1.77;;;;;;;19.13;91.93;100036.56;6248377;28;20057;-73
2023/07/01 11:39:45;;;;;;;6.07;2.63;;;;;;;19.04;93.93;100026.00;6242203;28;20040;-78
2023/07/01 11:42:47;;;;;;;5.93;1.70;;;;;;;19.23;93.86;100033.78;6242135;28;20119;-79
2023/07/01 11:45:50;;;;;;;3.40;1.95;;;;;;;19.25;94.11;100027.31;6262150;28;20449;-74
2023/07/01 11:48:51;;;;;;;2.85;1.80;;;;;;;19.42;93.78;100028.25;6234721;28;20045;-72
2023/07/01 11:55:51;;;;;;;1.90;1.33;;;;;;;19.22;99.80;100032.13;6238624;28;20428;-73
2023/07/01 11:58:52;;;;;;;2.50;1.67;;;;;;;19.02;100.00;100036.78;6251933;28;20069;-77
2023/07/01 12:01:54;;;;;;;3.65;1.48;;;;;;;18.75;100.00;100038.53;6232635;28;20132;-75
2023/07/01 12:04:55;;;;;;;3.55;1.70;;;;;;;18.72;100.00;100036.19;6227304;28;20049;-74
2023/07/01 12:07:57;;;;;;;2.88;1.85;;;;;;;18.65;100.00;100037.75;6219788;28;20441;-73
2023/07/01 12:11:15;;;;;;;4.28;2.08;;;;;;;18.64;100.00;100038.75;6209627;28;20418;-74
2023/07/01 12:14:18;;;;;;;4.95;2.15;;;;;;;18.67;100.00;100053.59;6227498;28;20357;-78
2023/07/01 12:17:28;;;;;;;3.92;2.10;;;;;;;18.69;100.00;100046.31;6216456;28;20129;-74
2023/07/01 12:20:29;;;;;;;3.75;2.03;;;;;;;18.60;100.00;100050.66;6221332;28;20054;-75
2023/07/01 12:23:39;;;;;;;3.65;2.00;;;;;;;18.64;100.00;100036.06;6219063;28;20042;-73
2023/07/01 12:26:42;;;;;;;2.83;2.22;;;;;;;18.58;100.00;100046.50;6221537;28;20065;-74
2023/07/01 12:29:43;;;;;;;2.78;2.20;;;;;;;18.62;100.00;100045.19;6219384;28;20038;-74
2023/07/01 12:32:48;;;;;;;3.90;2.17;;;;;;;18.73;100.00;100045.00;6227891;28;20046;-74
2023/07/01 12:35:50;;;;;;;5.25;2.05;;;;;;;18.75;100.00;100046.53;6227225;28;20042;-73
2023/07/01 12:38:51;;;;;;;2.75;1.92;;;;;;;18.56;100.00;100061.75;6219026;28;20046;-74
2023/07/01 12:41:55;;;;;;;5.38;2.22;;;;;;;18.40;100.00;100044.66;6219406;28;20061;-75
2023/07/01 12:44:56;;;;;;;4.93;2.35;;;;;;;18.36;100.00;100042.44;6218864;28;20084;-74
2023/07/01 12:47:57;;;;;;;3.10;2.15;;;;;;;18.27;100.00;100046.81;6227213;28;20053;-78
2023/07/01 12:50:59;;;;;;;3.95;2.80;;;;;;;18.39;100.00;100048.28;6219257;28;20604;-74
2023/07/01 12:54:00;;;;;;;4.80;2.47;;;;;;;18.56;100.00;100051.97;6225948;28;20050;-74
2023/07/01 12:57:03;;;;;;;3.60;2.10;;;;;;;18.67;100.00;100048.25;6210752;28;20438;-74
2023/07/01 13:00:06;;;;;;;7.82;2.70;;;;;;;18.64;100.00;100044.06;6208791;28;20049;-73
2023/07/01 13:03:08;;;;;;;4.13;2.42;;;;;;;18.57;100.00;100045.63;6226715;28;20103;-73
2023/07/01 13:06:23;;;;;;;4.60;2.70;;;;;;;18.44;100.00;100037.19;6233438;28;20064;-74
2023/07/01 13:09:37;;;;;;;2.22;1.98;;;;;;;18.33;100.00;100035.56;6210413;28;20440;-74
2023/07/01 13:12:40;;;;;;;2.40;1.70;;;;;;;18.34;100.00;100039.91;6204437;28;20050;-73
2023/07/01 13:15:46;;;;;;;3.88;1.60;;;;;;;18.29;100.00;100034.19;6202363;28;20562;-76
2023/07/01 13:18:47;;;;;;;4.05;1.50;;;;;;;18.29;100.00;100031.53;6201998;28;20405;-74
2023/07/01 13:21:49;;;;;;;1.65;1.38;;;;;;;18.42;100.00;100026.69;6201612;28;20053;-73
2023/07/01 13:24:50;;;;;;;2.35;1.55;;;;;;;18.43;100.00;100024.88;6202047;28;20060;-73
2023/07/01 13:27:54;;;;;;;3.83;1.70;;;;;;;18.33;100.00;100021.44;6209058;28;20636;-73
2023/07/01 13:30:55;;;;;;;1.85;1.52;;;;;;;18.30;100.00;100027.88;6234574;28;20042;-74
2023/07/01 13:33:59;;;;;;;3.22;1.80;;;;;;;18.39;100.00;100015.50;6226057;28;20046;-74
2023/07/01 13:37:00;;;;;;;2.22;1.58;;;;;;;18.32;100.00;100023.28;6218193;28;20357;-73
2023/07/01 13:40:03;;;;;;;4.63;1.95;;;;;;;18.34;100.00;100017.78;6226013;28;20061;-74
2023/07/01 13:43:12;;;;;;;2.70;1.95;;;;;;;18.50;100.00;100020.63;6225392;28;20056;-73
2023/07/01 13:46:14;;;;;;;3.75;1.85;;;;;;;18.55;100.00;100022.84;6201813;28;20568;-73
2023/07/01 13:49:21;;;;;;;4.20;1.98;;;;;;;18.43;100.00;100020.38;6201707;28;20049;-73
2023/07/01 13:52:22;;;;;;;1.70;1.52;;;;;;;18.52;100.00;100015.97;6203415;28;20433;-74
2023/07/01 13:55:24;;;;;;;3.25;1.75;;;;;;;18.55;100.00;100013.03;6214238;28;20050;-73
2023/07/01 13:58:27;;;;;;;3.38;1.63;;;;;;;18.55;100.00;100010.38;6208563;28;20042;-73
2023/07/01 14:01:28;;;;;;;1.92;1.58;;;;;;;18.47;100.00;100013.78;6214576;28;20049;-74
2023/07/01 14:04:31;;;;;;;2.05;1.40;;;;;;;18.45;100.00;100005.13;6201490;28;20053;-74
2023/07/01 14:07:35;;;;;;;1.38;1.15;;;;;;;18.31;100.00;100004.81;6201554;28;20049;-73
2023/07/01 14:10:39;;;;;;;1.92;1.63;;;;;;;18.22;100.00;99998.56;6203050;28;20050;-74
2023/07/01 14:13:42;;;;;;;1.92;1.70;;;;;;;18.29;100.00;100004.94;6211935;28;20128;-74